createdAt,value
2023-03-04T00:00:12.173Z,111.47
2023-03-04T00:02:39.158Z,95.93
2023-03-04T00:05:06.738Z,105.80
2023-03-04T00:07:33.804Z,100.18
2023-03-04T00:10:01.833Z,103.70
2023-03-04T00:12:28.785Z,100.00
2023-03-04T00:14:55.659Z,98.55
2023-03-04T00:17:22.777Z,100.45
2023-03-04T00:19:49.969Z,92.57
2023-03-04T00:22:16.823Z,97.95
2023-03-04T00:24:43.709Z,105.20
2023-03-04T00:27:29.325Z,99.72
2023-03-04T00:29:57.140Z,105.13
2023-03-04T00:32:24.332Z,103.88
2023-03-04T00:34:51.619Z,98.30
2023-03-04T00:37:18.488Z,95.15
2023-03-04T00:39:46.758Z,100.20
2023-03-04T00:42:13.719Z,95.35
2023-03-04T00:44:40.775Z,100.70
2023-03-04T00:47:07.897Z,93.15
2023-03-04T00:49:34.951Z,89.88
2023-03-04T00:52:01.880Z,94.68
2023-03-04T00:54:28.823Z,102.80
2023-03-04T00:56:55.773Z,100.70
2023-03-04T00:59:22.626Z,101.80
2023-03-04T01:01:49.877Z,98.32
2023-03-04T01:04:16.845Z,97.13
2023-03-04T01:06:43.807Z,96.80
2023-03-04T01:09:10.820Z,97.95
2023-03-04T01:11:38.100Z,95.03
2023-03-04T01:14:05.082Z,96.10
2023-03-04T01:16:32.202Z,98.07
2023-03-04T01:18:59.292Z,95.75
2023-03-04T01:21:26.482Z,90.22
2023-03-04T01:23:53.436Z,93.07
2023-03-04T01:26:20.449Z,94.35
2023-03-04T01:28:48.575Z,97.88
2023-03-04T01:31:15.736Z,86.22
2023-03-04T01:33:42.689Z,88.95
2023-03-04T01:36:09.472Z,88.25
2023-03-04T01:38:36.289Z,90.78
2023-03-04T01:41:03.480Z,83.80
2023-03-04T01:43:31.963Z,80.07
2023-03-04T01:45:59.321Z,86.32
2023-03-04T01:48:29.711Z,86.32
2023-03-04T01:50:56.966Z,91.20
2023-03-04T01:53:26.884Z,91.60
2023-03-04T01:55:57.539Z,88.60
2023-03-04T01:58:28.692Z,86.72
2023-03-04T02:03:30.839Z,89.90
2023-03-04T02:05:57.720Z,85.70
2023-03-04T02:08:25.754Z,80.60
2023-03-04T02:10:54.214Z,81.90
2023-03-04T02:13:21.615Z,83.20
2023-03-04T02:15:49.180Z,80.22
2023-03-04T02:18:22.863Z,80.35
2023-03-04T02:21:04.356Z,81.38
2023-03-04T02:23:52.654Z,81.57
2023-03-04T02:26:25.476Z,79.93
2023-03-04T02:28:54.125Z,83.18
2023-03-04T02:31:43.896Z,80.80
2023-03-04T02:34:20.507Z,84.97
2023-03-04T02:36:51.490Z,81.97
2023-03-04T02:39:21.336Z,93.18
2023-03-04T02:41:54.219Z,88.55
2023-03-04T02:44:30.702Z,85.32
2023-03-04T02:49:28.232Z,94.50
2023-03-04T02:52:05.467Z,87.32
2023-03-04T02:54:32.647Z,83.70
2023-03-04T02:57:02.527Z,84.45
2023-03-04T02:59:29.887Z,87.15
2023-03-04T03:01:57.044Z,85.93
2023-03-04T03:04:25.693Z,91.93
2023-03-04T03:06:53.128Z,91.68
2023-03-04T03:09:20.362Z,83.80
2023-03-04T03:11:47.283Z,85.78
2023-03-04T03:14:14.228Z,94.75
2023-03-04T03:16:41.670Z,88.45
2023-03-04T03:19:08.471Z,91.32
2023-03-04T03:21:35.936Z,96.18
2023-03-04T03:24:03.146Z,102.35
2023-03-04T03:26:29.990Z,100.88
2023-03-04T03:28:56.867Z,99.35
2023-03-04T03:31:23.701Z,109.95
2023-03-04T03:33:50.787Z,101.25
2023-03-04T03:36:17.817Z,117.65
2023-03-04T03:38:44.702Z,112.07
2023-03-04T03:41:11.660Z,123.22
2023-03-04T03:43:38.867Z,114.95
2023-03-04T03:46:05.945Z,122.53
2023-03-04T03:48:33.175Z,114.38
2023-03-04T03:51:00.146Z,116.22
2023-03-04T03:53:27.122Z,111.15
2023-03-04T03:55:53.925Z,114.43
2023-03-04T03:58:20.934Z,123.30
2023-03-04T04:00:47.774Z,113.47
2023-03-04T04:03:18.237Z,119.13
2023-03-04T04:05:45.104Z,111.70
2023-03-04T04:08:14.844Z,112.65
2023-03-04T04:10:42.630Z,120.38
2023-03-04T04:13:10.145Z,126.95
2023-03-04T04:15:38.805Z,125.68
2023-03-04T04:18:06.984Z,131.57
2023-03-04T04:20:34.594Z,122.28
2023-03-04T04:23:02.434Z,119.88
2023-03-04T04:25:29.823Z,112.13
2023-03-04T04:27:56.789Z,107.47
2023-03-04T04:30:23.644Z,112.75
2023-03-04T04:32:50.773Z,104.95
2023-03-04T04:35:18.317Z,113.00
2023-03-04T04:37:45.105Z,130.95
2023-03-04T04:40:12.733Z,110.32
2023-03-04T04:42:39.674Z,99.43
2023-03-04T04:45:07.282Z,103.60
2023-03-04T04:47:34.580Z,135.75
2023-03-04T04:50:01.586Z,105.65
2023-03-04T04:52:28.812Z,97.78
2023-03-04T04:54:55.742Z,98.55
2023-03-04T04:57:22.732Z,99.72
2023-03-04T04:59:49.575Z,95.60
2023-03-04T05:02:16.521Z,99.30
2023-03-04T05:04:43.465Z,100.57
2023-03-04T05:07:10.321Z,100.82
2023-03-04T05:09:37.182Z,99.45
2023-03-04T05:12:04.419Z,112.03
2023-03-04T05:14:31.236Z,109.22
2023-03-04T05:17:16.758Z,111.90
2023-03-04T05:19:43.574Z,117.05
2023-03-04T05:22:10.658Z,108.97
2023-03-04T05:24:37.489Z,116.15
2023-03-04T05:27:04.383Z,117.55
2023-03-04T05:29:31.233Z,127.75
2023-03-04T05:31:58.420Z,112.30
2023-03-04T05:34:25.428Z,116.10
2023-03-04T05:36:52.287Z,105.90
2023-03-04T05:39:19.311Z,101.53
2023-03-04T05:41:46.233Z,108.00
2023-03-04T05:44:13.051Z,107.32
2023-03-04T05:46:40.012Z,105.65
2023-03-04T05:49:06.952Z,112.53
2023-03-04T05:51:38.417Z,115.60
2023-03-04T05:54:05.315Z,111.72
2023-03-04T05:56:33.631Z,107.53
2023-03-04T05:59:00.858Z,101.43
2023-03-04T06:01:27.912Z,96.07
2023-03-04T06:03:54.952Z,94.30
2023-03-04T06:06:21.788Z,94.75
2023-03-04T06:08:48.621Z,102.20
2023-03-04T06:11:15.597Z,106.30
2023-03-04T06:13:42.551Z,105.45
2023-03-04T06:16:10.401Z,99.18
2023-03-04T06:18:37.436Z,93.07
2023-03-04T06:21:04.690Z,97.90
2023-03-04T06:23:31.825Z,102.70
2023-03-04T06:26:00.172Z,105.13
2023-03-04T06:28:27.409Z,98.07
2023-03-04T06:30:56.123Z,96.15
2023-03-04T06:33:23.559Z,105.72
2023-03-04T06:35:54.758Z,104.45
2023-03-04T06:38:21.727Z,101.03
2023-03-04T06:40:49.192Z,95.35
2023-03-04T06:43:16.318Z,112.30
2023-03-04T06:45:43.226Z,117.30
2023-03-04T06:48:10.185Z,118.53
2023-03-04T06:50:37.023Z,109.25
2023-03-04T06:53:03.892Z,114.40
2023-03-04T06:55:31.149Z,122.45
2023-03-04T06:57:57.966Z,111.97
2023-03-04T07:00:25.261Z,110.07
2023-03-04T07:02:55.000Z,115.72
2023-03-04T07:05:22.228Z,119.97
2023-03-04T07:07:50.104Z,122.68
2023-03-04T07:10:18.883Z,119.78
2023-03-04T07:12:46.244Z,128.60
2023-03-04T07:15:13.468Z,127.07
2023-03-04T07:17:40.305Z,121.78
2023-03-04T07:20:07.624Z,120.57
2023-03-04T07:22:34.656Z,123.93
2023-03-04T07:25:02.908Z,121.22
2023-03-04T07:27:29.726Z,125.65
2023-03-04T07:29:56.689Z,125.57
2023-03-04T07:32:23.660Z,128.75
2023-03-04T07:34:52.980Z,119.82
2023-03-04T07:37:19.971Z,125.80
2023-03-04T07:39:47.036Z,127.10
2023-03-04T07:42:13.880Z,122.65
2023-03-04T07:44:40.741Z,140.93
2023-03-04T07:47:07.721Z,120.88
2023-03-04T07:49:34.583Z,129.35
2023-03-04T07:52:05.749Z,116.10
2023-03-04T07:54:33.460Z,107.32
2023-03-04T07:57:00.387Z,122.80
2023-03-04T07:59:27.552Z,116.22
2023-03-04T08:01:54.513Z,109.88
2023-03-04T08:04:21.602Z,108.18
2023-03-04T08:06:49.049Z,101.63
2023-03-04T08:09:16.128Z,94.47
2023-03-04T08:11:43.779Z,115.97
2023-03-04T08:14:12.890Z,109.00
2023-03-04T08:16:40.058Z,100.43
2023-03-04T08:19:07.752Z,106.28
2023-03-04T08:21:35.919Z,98.88
2023-03-04T08:24:08.498Z,103.53
2023-03-04T08:26:43.876Z,96.07
2023-03-04T08:29:14.413Z,93.95
2023-03-04T08:31:41.534Z,93.53
2023-03-04T08:34:10.445Z,88.13
2023-03-04T08:36:37.344Z,94.20
2023-03-04T08:39:06.155Z,96.65
2023-03-04T08:41:33.539Z,90.93
2023-03-04T08:44:01.189Z,81.28
2023-03-04T08:46:28.738Z,88.97
2023-03-04T08:48:55.717Z,82.97
2023-03-04T08:51:23.104Z,77.90
2023-03-04T08:53:50.041Z,80.57
2023-03-04T08:56:17.229Z,87.40
2023-03-04T08:58:44.646Z,86.70
2023-03-04T09:01:13.505Z,107.15
2023-03-04T09:03:41.568Z,93.88
2023-03-04T09:06:10.000Z,95.90
2023-03-04T09:08:36.954Z,98.47
2023-03-04T09:11:03.952Z,76.80
2023-03-04T09:13:32.015Z,83.53
2023-03-04T09:16:00.156Z,87.22
2023-03-04T09:18:28.391Z,85.78
2023-03-04T09:20:55.457Z,83.43
2023-03-04T09:23:22.660Z,81.25
2023-03-04T09:25:50.112Z,78.93
2023-03-04T09:28:18.084Z,70.53
2023-03-04T09:30:45.750Z,63.85
2023-03-04T09:33:49.564Z,63.80
2023-03-04T09:36:26.235Z,68.22
2023-03-04T09:38:55.282Z,74.70
2023-03-04T09:41:46.564Z,72.38
2023-03-04T09:44:37.902Z,69.55
2023-03-04T09:47:12.384Z,74.05
2023-03-04T09:49:42.951Z,80.22
2023-03-04T09:52:21.781Z,81.15
2023-03-04T09:55:13.711Z,81.60
2023-03-04T09:57:53.236Z,74.03
2023-03-04T10:00:41.763Z,75.60
2023-03-04T10:03:21.026Z,77.07
2023-03-04T10:05:50.930Z,83.28
2023-03-04T10:08:23.844Z,75.32
2023-03-04T10:10:53.341Z,70.82
2023-03-04T10:13:32.595Z,63.90
2023-03-04T10:16:03.278Z,73.40
2023-03-04T10:18:39.172Z,67.57
2023-03-04T10:21:20.763Z,68.72
2023-03-04T10:23:48.602Z,66.05
2023-03-04T10:26:20.960Z,68.55
2023-03-04T10:28:49.018Z,70.47
2023-03-04T10:31:20.340Z,63.85
2023-03-04T10:33:47.306Z,76.80
2023-03-04T10:36:39.105Z,91.68
2023-03-04T10:39:08.705Z,87.00
2023-03-04T10:41:35.749Z,84.25
2023-03-04T10:44:15.902Z,87.30
2023-03-04T10:46:48.568Z,80.80
2023-03-04T10:49:20.500Z,80.45
2023-03-04T10:51:50.537Z,79.85
2023-03-04T10:54:25.564Z,71.80
2023-03-04T10:57:06.010Z,76.00
2023-03-04T10:59:51.094Z,69.20
2023-03-04T11:02:27.790Z,66.72
2023-03-04T11:05:07.435Z,65.68
2023-03-04T11:07:54.461Z,60.05
2023-03-04T11:10:41.556Z,67.05
2023-03-04T11:13:23.342Z,68.03
2023-03-04T11:15:59.957Z,62.05
2023-03-04T11:18:38.722Z,57.85
2023-03-04T11:21:08.219Z,55.55
2023-03-04T11:23:47.995Z,51.33
2023-03-04T11:26:19.186Z,56.03
2023-03-04T11:29:04.651Z,50.33
2023-03-04T11:31:40.514Z,57.50
2023-03-04T11:34:16.508Z,58.08
2023-03-04T11:36:59.194Z,66.35
2023-03-04T11:39:44.249Z,58.58
2023-03-04T11:42:26.234Z,58.38
2023-03-04T11:44:53.438Z,51.05
2023-03-04T11:48:11.509Z,52.30
2023-03-04T11:50:45.819Z,62.03
2023-03-04T11:53:47.822Z,63.15
2023-03-04T11:56:32.882Z,59.92
2023-03-04T11:59:12.378Z,53.72
2023-03-04T12:04:52.284Z,57.33
2023-03-04T12:07:43.136Z,57.03
2023-03-04T12:10:31.049Z,65.53
2023-03-04T12:13:22.957Z,64.95
2023-03-04T12:15:56.159Z,58.47
2023-03-04T12:18:35.779Z,55.40
2023-03-04T12:21:17.065Z,57.47
2023-03-04T12:24:11.886Z,62.00
2023-03-04T12:27:06.740Z,52.55
2023-03-04T12:29:57.482Z,63.17
2023-03-04T12:32:51.860Z,52.33
2023-03-04T12:35:30.128Z,47.55
2023-03-04T12:38:31.136Z,49.50
2023-03-04T12:41:33.308Z,55.60
2023-03-04T12:44:12.326Z,67.70
2023-03-04T12:47:12.006Z,62.67
2023-03-04T12:49:55.562Z,50.55
2023-03-04T12:52:49.112Z,51.17
2023-03-04T12:55:19.381Z,53.45
2023-03-04T12:57:46.735Z,49.25
2023-03-04T13:00:13.482Z,57.55
2023-03-04T13:03:08.655Z,56.22
2023-03-04T13:06:13.089Z,46.65
2023-03-04T13:08:58.382Z,46.38
2023-03-04T13:11:34.320Z,48.05
2023-03-04T13:14:09.622Z,52.85
2023-03-04T13:16:40.421Z,53.15
2023-03-04T13:19:47.485Z,51.80
2023-03-04T13:22:38.223Z,56.35
2023-03-04T13:25:29.826Z,52.28
2023-03-04T13:28:05.286Z,46.25
2023-03-04T13:30:35.197Z,42.00
2023-03-04T13:33:10.889Z,44.63
2023-03-04T13:35:47.395Z,47.55
2023-03-04T13:38:36.528Z,47.15
2023-03-04T13:41:22.315Z,44.65
2023-03-04T13:43:53.918Z,47.53
2023-03-04T13:46:20.925Z,41.92
2023-03-04T13:48:50.831Z,45.35
2023-03-04T13:51:30.335Z,48.80
2023-03-04T13:54:00.799Z,55.30
2023-03-04T13:56:37.610Z,55.03
2023-03-04T13:59:07.866Z,54.17
2023-03-04T14:02:10.424Z,52.65
2023-03-04T14:04:43.226Z,49.00
2023-03-04T14:07:33.918Z,53.58
2023-03-04T14:10:04.873Z,60.30
2023-03-04T14:12:38.052Z,66.85
2023-03-04T14:15:22.284Z,58.47
2023-03-04T14:17:53.071Z,60.17
2023-03-04T14:20:41.966Z,57.22
2023-03-04T14:23:27.642Z,48.08
2023-03-04T14:26:06.259Z,52.92
2023-03-04T14:28:33.230Z,50.13
2023-03-04T14:31:00.241Z,56.38
2023-03-04T14:33:33.031Z,50.92
2023-03-04T14:36:02.820Z,52.33
2023-03-04T14:41:09.281Z,52.25
2023-03-04T14:43:46.536Z,49.58
2023-03-04T14:46:17.325Z,50.20
2023-03-04T14:51:55.402Z,55.67
2023-03-04T14:55:00.199Z,56.78
2023-03-04T14:57:32.588Z,49.15
2023-03-04T15:00:15.421Z,49.55
2023-03-04T15:02:43.177Z,55.40
2023-03-04T15:05:31.605Z,58.53
2023-03-04T15:08:02.974Z,55.95
2023-03-04T15:13:08.265Z,54.72
2023-03-04T15:15:40.384Z,58.67
2023-03-04T15:18:18.337Z,56.75
2023-03-04T15:21:00.321Z,65.38
2023-03-04T15:23:29.843Z,59.53
2023-03-04T15:26:00.578Z,68.75
2023-03-04T15:28:35.333Z,61.78
2023-03-04T15:31:02.796Z,70.40
2023-03-04T15:33:29.896Z,69.05
2023-03-04T15:36:02.243Z,75.88
2023-03-04T15:38:30.206Z,75.15
2023-03-04T15:48:56.519Z,79.82
2023-03-04T15:51:23.840Z,80.97
2023-03-04T15:53:52.590Z,86.18
2023-03-04T15:56:28.551Z,69.70
2023-03-04T15:58:59.193Z,67.35
2023-03-04T16:01:26.535Z,66.45
2023-03-04T16:03:54.086Z,77.90
2023-03-04T16:06:24.692Z,74.07
2023-03-04T16:08:52.444Z,73.68
2023-03-04T16:11:22.336Z,80.32
2023-03-04T16:13:49.335Z,77.78
2023-03-04T16:16:16.395Z,71.78
2023-03-04T16:18:43.759Z,64.75
2023-03-04T16:21:15.278Z,73.82
2023-03-04T16:23:46.006Z,69.90
2023-03-04T16:26:18.783Z,65.28
2023-03-04T16:28:45.774Z,77.05
2023-03-04T16:31:15.497Z,80.25
2023-03-04T16:33:42.723Z,66.20
2023-03-04T16:36:29.908Z,64.50
2023-03-04T16:38:59.724Z,70.45
2023-03-04T16:41:30.815Z,88.13
2023-03-04T16:44:01.336Z,80.35
2023-03-04T16:46:28.630Z,86.65
2023-03-04T16:48:55.786Z,99.13
2023-03-04T16:51:24.736Z,121.07
2023-03-04T16:54:02.378Z,96.93
2023-03-04T16:56:30.878Z,87.07
2023-03-04T16:59:17.564Z,98.93
2023-03-04T17:01:44.914Z,100.20
2023-03-04T17:04:11.718Z,88.63
2023-03-04T17:06:39.983Z,86.50
2023-03-04T17:09:08.625Z,85.32
2023-03-04T17:11:36.324Z,92.22
2023-03-04T17:14:03.468Z,101.22
2023-03-04T17:16:30.584Z,74.80
2023-03-04T17:18:57.749Z,102.25
2023-03-04T17:21:27.948Z,90.47
2023-03-04T17:23:54.938Z,92.93
2023-03-04T17:26:22.741Z,84.80
2023-03-04T17:28:50.972Z,91.57
2023-03-04T17:31:20.426Z,97.65
2023-03-04T17:33:48.477Z,97.78
2023-03-04T17:36:16.951Z,94.10
2023-03-04T17:38:44.305Z,91.07
2023-03-04T17:41:16.182Z,83.93
2023-03-04T17:43:49.045Z,87.32
2023-03-04T17:46:19.628Z,87.55
2023-03-04T17:48:46.942Z,97.93
2023-03-04T17:51:13.876Z,93.28
2023-03-04T17:53:41.491Z,97.18
2023-03-04T17:56:11.331Z,99.45
2023-03-04T17:58:39.026Z,99.65
2023-03-04T18:01:17.789Z,99.65
2023-03-04T18:03:44.727Z,103.13
2023-03-04T18:06:11.685Z,105.13
2023-03-04T18:08:38.537Z,104.90
2023-03-04T18:11:05.580Z,99.35
2023-03-04T18:13:32.557Z,103.68
2023-03-04T18:15:59.551Z,103.32
2023-03-04T18:18:26.457Z,99.38
2023-03-04T18:21:00.500Z,102.40
2023-03-04T18:23:28.636Z,95.05
2023-03-04T18:25:55.645Z,92.18
2023-03-04T18:28:22.855Z,98.18
2023-03-04T18:30:54.439Z,107.47
2023-03-04T18:33:21.916Z,121.85
2023-03-04T18:35:50.469Z,125.47
2023-03-04T18:38:17.489Z,149.98
2023-03-04T18:40:44.994Z,171.18
2023-03-04T18:43:12.263Z,213.23
2023-03-04T18:45:39.921Z,223.30
2023-03-04T18:48:06.957Z,240.90
2023-03-04T18:50:36.075Z,250.18
2023-03-04T18:53:04.256Z,240.85
2023-03-04T18:55:32.521Z,250.45
2023-03-04T18:58:01.866Z,251.57
2023-03-04T19:00:29.624Z,246.75
2023-03-04T19:03:03.464Z,254.65
2023-03-04T19:05:50.263Z,233.38
2023-03-04T19:17:03.814Z,193.90
2023-03-04T19:19:46.167Z,196.02
2023-03-04T19:22:28.081Z,188.43
2023-03-04T19:25:46.181Z,188.15
2023-03-04T19:28:56.550Z,176.88
2023-03-04T19:31:36.743Z,187.10
2023-03-04T19:34:06.003Z,194.65
2023-03-04T19:36:42.585Z,190.13
2023-03-04T19:39:18.529Z,189.70
2023-03-04T19:41:47.182Z,208.65
2023-03-04T19:44:31.737Z,229.02
2023-03-04T19:58:55.639Z,251.40
2023-03-04T20:01:34.273Z,231.90
2023-03-04T20:04:09.057Z,241.30
2023-03-04T20:07:12.433Z,229.15
2023-03-04T20:09:55.888Z,243.95
2023-03-04T20:12:49.136Z,239.23
2023-03-04T20:15:17.105Z,227.27
2023-03-04T20:18:14.516Z,216.82
2023-03-04T20:25:04.289Z,210.30
2023-03-04T20:28:15.129Z,215.73
2023-03-04T20:31:24.288Z,229.95
2023-03-04T20:37:32.460Z,222.90
2023-03-04T21:17:50.421Z,172.32
2023-03-04T21:24:15.095Z,183.05
2023-03-04T21:34:52.186Z,165.75
2023-03-04T21:41:57.433Z,198.23
2023-03-04T21:44:45.005Z,190.93
2023-03-04T21:47:18.196Z,190.85
2023-03-04T21:49:52.173Z,177.95
2023-03-04T21:53:07.128Z,172.48
2023-03-04T21:56:05.835Z,165.93
2023-03-04T21:58:42.662Z,160.52
2023-03-04T22:01:48.705Z,141.50
2023-03-04T22:04:54.042Z,136.80
2023-03-04T22:07:53.236Z,136.80
2023-03-04T22:10:29.426Z,134.75
2023-03-04T22:13:21.712Z,131.57
2023-03-04T22:15:51.259Z,116.05
2023-03-04T22:43:00.845Z,106.43
2023-03-04T22:53:31.827Z,122.32
2023-03-04T22:56:54.384Z,134.05
2023-03-04T22:59:27.680Z,147.20
2023-03-04T23:01:56.009Z,141.68
2023-03-04T23:05:20.030Z,139.23
2023-03-04T23:07:48.412Z,142.32
2023-03-04T23:10:30.451Z,134.73
2023-03-04T23:13:34.328Z,148.00
